Webcam 1 more information Webcam 1


Webcam 2 more information Webcam 2


altri nostri siti meteo:

Pomeziameteo 1Sito sul meteo

Pomeziameteo DashboardSito sul meteo

Caput FrigorisSito sul meteo

BarcellonameteoSito sul meteo

MeteoipassiSito sul meteo

ViterbometeoSito sul meteo

MeteotortoretoSito sul meteo

Stazione LineameteoSito sul meteo



Nessuna attenzione particolare richiesta.    Non ci sono allerte meteo

Notice: Undefined offset: 6 in /web/htdocs/www.castelnuovovomanometeo.it/home/weather28/metar/metarDisplay.php on line 76

Notice: Undefined offset: 5 in /web/htdocs/www.castelnuovovomanometeo.it/home/weather28/metar/metarDisplay.php on line 76

Report METAR

   
LIBP - Pescara
Dati ricevuti: 23-06-2021 01:50
Sereno  
Sereno  
   Vento: Variabile 1.9 km/h
Vento: Variabile 1.9 km/h
Temperatura: 22°C
P.to Rugiada: 21°C
Umidita: 94%
Barometro: 1012 hPa
Nuvole: Sereno
Visibilita: oltre 10 km
dettagli cloud: Sereno
LIBP 222350Z AUTO VRB01KT 9999 NCD 22/21 Q1012
LIRZ - Perugia
Dati ricevuti: 23-06-2021 01:50
Sereno  
Sereno  
   Vento: NE 9.3 km/h
Vento: NE 9.3 km/h
Temperatura: 21°C
P.to Rugiada: 16°C
Umidita: 73%
Barometro: 1014 hPa
Nuvole: Sereno
Visibilita: oltre 10 km
dettagli cloud: Sereno
LIRZ 222350Z AUTO 02005KT 9999 NCD 21/16 Q1014
LIQN - Rieti
Dati ricevuti: 22-06-2021 19:50
DATI Obsoleti
Sereno  
Sereno  
   Vento: SW 7.4 km/h
Vento: SW 7.4 km/h
Temperatura: 30°C
Indice di Calore: 33°C
P.to Rugiada: 21°C
Umidita: 59%
Barometro: 1014 hPa
Visibilita: oltre 10 km
dettagli cloud: Sereno
LIQN 221750Z 23004KT CAVOK 30/21 Q1014
LIPY - Falconara
Dati ricevuti: 23-06-2021 01:50
Sereno  
Sereno  
   Vento: Sud 5.6 km/h
Vento: Sud 5.6 km/h
Temperatura: 22°C
P.to Rugiada: 17°C
Umidita: 73%
Barometro: 1012 hPa
Nuvole: Sereno
Visibilita: oltre 10 km
dettagli cloud: Sereno
LIPY 222350Z AUTO 19003KT 160V220 9999 NCD 22/17 Q1012
  

Script sviluppato da  Saratoga-weather.org Adattato per il modello da  Weerstation Leuven

Potete trovare le nostre info meteo anche a:

Weather Underground

AWEKAS

Citizen Weather Observer Program (CWOP)

HAMweather, WeatherForYou, PWS Weather

Strumentazione usata:

Stazione meteo
Oregon 928

Programma gestore dati meteo
WVIEW

Server per i dati meteo
Pc-WDS5

Oregon 928

WVIEW

Pc-WDS5